createdAt,value
2022-08-05T00:01:35.562Z,54.62
2022-08-05T00:04:05.179Z,54.66
2022-08-05T00:06:36.376Z,54.70
2022-08-05T00:09:12.802Z,54.77
2022-08-05T00:11:49.622Z,54.85
2022-08-05T00:14:27.594Z,54.87
2022-08-05T00:17:01.913Z,54.94
2022-08-05T00:19:33.698Z,54.96
2022-08-05T00:22:11.339Z,55.02
2022-08-05T00:24:42.356Z,55.14
2022-08-05T00:27:28.542Z,55.15
2022-08-05T00:29:58.805Z,55.17
2022-08-05T00:32:28.557Z,55.30
2022-08-05T00:35:06.399Z,55.31
2022-08-05T00:37:52.580Z,55.29
2022-08-05T00:40:27.149Z,55.29
2022-08-05T00:42:59.709Z,55.39
2022-08-05T00:45:42.848Z,55.41
2022-08-05T00:48:13.272Z,55.42
2022-08-05T00:50:45.817Z,55.34
2022-08-05T00:54:00.867Z,55.46
2022-08-05T00:56:07.916Z,55.62
2022-08-05T00:58:38.018Z,55.66
2022-08-05T01:01:09.061Z,55.89
2022-08-05T01:03:39.352Z,55.99
2022-08-05T01:06:14.038Z,56.18
2022-08-05T01:08:46.374Z,56.30
2022-08-05T01:11:24.131Z,56.38
2022-08-05T01:14:15.366Z,56.65
2022-08-05T01:16:54.279Z,56.77
2022-08-05T01:19:30.211Z,56.79
2022-08-05T01:22:34.152Z,56.80
2022-08-05T01:25:08.232Z,56.85
2022-08-05T01:27:50.608Z,56.85
2022-08-05T01:30:34.247Z,56.79
2022-08-05T01:33:09.589Z,56.86
2022-08-05T01:35:50.988Z,56.94
2022-08-05T01:38:26.811Z,57.36
2022-08-05T01:41:01.790Z,57.36
2022-08-05T01:43:32.674Z,57.54
2022-08-05T01:46:06.910Z,57.73
2022-08-05T01:48:49.388Z,57.89
2022-08-05T01:51:19.182Z,58.08
2022-08-05T01:53:58.126Z,58.21
2022-08-05T01:58:09.947Z,58.33
2022-08-05T01:59:22.198Z,58.67
2022-08-05T02:01:54.762Z,59.02
2022-08-05T02:04:25.950Z,59.30
2022-08-05T02:06:54.025Z,59.48
2022-08-05T02:09:22.142Z,59.66
2022-08-05T02:12:11.028Z,59.86
2022-08-05T02:14:47.993Z,59.84
2022-08-05T02:18:27.624Z,60.12
2022-08-05T02:20:22.197Z,60.45
2022-08-05T02:23:00.047Z,60.57
2022-08-05T02:25:49.355Z,60.84
2022-08-05T02:28:29.258Z,61.00
2022-08-05T02:31:26.519Z,61.23
2022-08-05T02:34:02.779Z,61.56
2022-08-05T02:36:32.714Z,61.39
2022-08-05T02:39:03.296Z,61.80
2022-08-05T02:41:43.221Z,62.12
2022-08-05T02:44:24.464Z,62.47
2022-08-05T02:47:00.269Z,66.39
2022-08-05T02:49:36.699Z,66.19
2022-08-05T02:52:09.377Z,60.05
2022-08-05T02:54:41.179Z,56.52
2022-08-05T02:58:10.337Z,56.76
2022-08-05T03:00:04.900Z,57.20
2022-08-05T03:02:40.594Z,57.66
2022-08-05T03:05:12.510Z,58.34
2022-08-05T03:08:06.705Z,59.03
2022-08-05T03:10:30.960Z,59.43
2022-08-05T03:15:28.485Z,60.49
2022-08-05T03:17:57.798Z,60.91
2022-08-05T03:20:28.447Z,61.41
2022-08-05T03:22:57.622Z,65.84
2022-08-05T03:25:32.989Z,67.19
2022-08-05T03:29:03.014Z,62.56
2022-08-05T03:31:56.520Z,56.44
2022-08-05T03:34:27.340Z,55.92
2022-08-05T03:36:57.250Z,56.82
2022-08-05T03:39:27.219Z,57.51
2022-08-05T03:41:56.972Z,58.44
2022-08-05T03:44:26.090Z,58.48
2022-08-05T03:46:57.217Z,59.04
2022-08-05T03:49:30.977Z,59.64
2022-08-05T03:52:48.515Z,59.75
2022-08-05T03:55:52.916Z,59.95
2022-08-05T03:58:03.770Z,60.56
2022-08-05T04:00:33.333Z,64.96
2022-08-05T04:03:03.558Z,67.56
2022-08-05T04:05:36.360Z,63.50
2022-08-05T04:08:14.504Z,58.12
2022-08-05T04:10:59.003Z,56.57
2022-08-05T04:13:51.142Z,56.96
2022-08-05T04:16:24.959Z,57.24
2022-08-05T04:18:54.898Z,58.14
2022-08-05T04:22:08.235Z,58.76
2022-08-05T04:24:18.839Z,59.01
2022-08-05T04:26:47.705Z,59.62
2022-08-05T04:29:15.602Z,58.74
2022-08-05T04:31:43.569Z,60.58
2022-08-05T04:34:31.247Z,64.66
2022-08-05T04:36:59.628Z,66.42
2022-08-05T04:39:28.831Z,58.89
2022-08-05T04:41:56.724Z,56.43
2022-08-05T04:44:29.904Z,56.53
2022-08-05T04:46:59.578Z,56.89
2022-08-05T04:49:38.767Z,57.51
2022-08-05T04:52:16.212Z,57.91
2022-08-05T04:54:44.274Z,58.60
2022-08-05T04:57:12.188Z,59.07
2022-08-05T04:59:40.734Z,60.10
2022-08-05T05:02:41.518Z,59.48
2022-08-05T05:05:03.105Z,59.27
2022-08-05T05:07:35.347Z,59.47
2022-08-05T05:10:06.661Z,60.19
2022-08-05T05:12:36.646Z,60.47
2022-08-05T05:15:06.024Z,60.10
2022-08-05T05:17:55.597Z,60.35
2022-08-05T05:20:28.374Z,59.57
2022-08-05T05:23:24.478Z,60.04
2022-08-05T05:25:52.609Z,59.98
2022-08-05T05:28:20.651Z,60.04
2022-08-05T05:30:49.581Z,59.97
2022-08-05T05:33:18.035Z,59.71
2022-08-05T05:35:51.843Z,59.56
2022-08-05T05:38:22.641Z,59.63
2022-08-05T05:40:58.006Z,59.49
2022-08-05T05:43:54.181Z,59.55
2022-08-05T05:46:15.915Z,59.49
2022-08-05T05:48:48.865Z,59.36
2022-08-05T05:51:22.343Z,59.06
2022-08-05T05:53:57.482Z,59.09
2022-08-05T05:56:32.487Z,58.89
2022-08-05T05:59:07.426Z,58.65
2022-08-05T06:01:39.401Z,58.69
2022-08-05T06:04:11.821Z,58.21
2022-08-05T06:06:47.290Z,57.79
2022-08-05T06:09:25.646Z,57.61
2022-08-05T06:12:01.160Z,57.53
2022-08-05T06:14:31.673Z,57.41
2022-08-05T06:17:02.091Z,57.36
2022-08-05T06:19:56.577Z,57.18
2022-08-05T06:22:30.557Z,57.34
2022-08-05T06:25:25.165Z,57.53
2022-08-05T06:28:10.999Z,57.22
2022-08-05T06:30:41.410Z,56.96
2022-08-05T06:33:10.652Z,55.87
2022-08-05T06:36:07.767Z,55.53
2022-08-05T06:38:36.745Z,55.36
2022-08-05T06:41:08.247Z,54.93
2022-08-05T06:43:58.727Z,54.45
2022-08-05T06:46:30.355Z,54.43
2022-08-05T06:49:01.217Z,54.46
2022-08-05T06:51:31.037Z,54.66
2022-08-05T06:54:01.968Z,54.97
2022-08-05T06:56:34.680Z,55.33
2022-08-05T06:59:09.490Z,55.36
2022-08-05T07:01:40.748Z,55.37
2022-08-05T07:04:10.927Z,55.13
2022-08-05T07:06:42.239Z,54.62
2022-08-05T07:09:10.304Z,54.77
2022-08-05T07:11:39.991Z,54.75
2022-08-05T07:14:29.513Z,53.94
2022-08-05T07:17:58.405Z,53.72
2022-08-05T07:20:31.226Z,53.67
2022-08-05T07:22:39.509Z,53.01
2022-08-05T07:25:54.728Z,52.57
2022-08-05T07:28:04.187Z,52.54
2022-08-05T07:30:38.693Z,52.37
2022-08-05T07:33:15.571Z,52.70
2022-08-05T07:36:02.310Z,52.49
2022-08-05T07:38:43.645Z,52.32
2022-08-05T07:42:08.573Z,52.12
2022-08-05T07:44:18.594Z,51.55
2022-08-05T07:46:49.501Z,51.10
2022-08-05T07:49:19.975Z,50.93
2022-08-05T07:51:53.423Z,50.92
2022-08-05T07:54:31.485Z,49.91
2022-08-05T07:57:16.709Z,50.18
2022-08-05T07:59:51.656Z,50.00
2022-08-05T08:02:26.757Z,49.54
2022-08-05T08:05:02.032Z,49.27
2022-08-05T08:07:39.677Z,48.85
2022-08-05T08:10:20.434Z,48.97
2022-08-05T08:12:50.013Z,49.38
2022-08-05T08:15:18.236Z,49.46
2022-08-05T08:18:09.911Z,50.05
2022-08-05T08:21:02.288Z,50.03
2022-08-05T08:24:02.126Z,49.98
2022-08-05T08:26:27.024Z,49.43
2022-08-05T08:29:21.616Z,49.38
2022-08-05T08:31:49.260Z,49.03
2022-08-05T08:34:30.148Z,48.34
2022-08-05T08:37:04.914Z,48.71
2022-08-05T08:39:37.110Z,48.67
2022-08-05T08:42:33.815Z,48.39
2022-08-05T08:45:18.096Z,48.30
2022-08-05T08:48:11.789Z,47.99
2022-08-05T08:51:22.806Z,48.22
2022-08-05T08:53:37.195Z,47.91
2022-08-05T08:57:06.025Z,47.00
2022-08-05T09:01:00.751Z,43.84
2022-08-05T09:05:16.714Z,41.94
2022-08-05T09:08:58.692Z,41.33
2022-08-05T09:12:51.122Z,42.16
2022-08-05T09:16:42.194Z,42.31
2022-08-05T09:20:38.382Z,41.77
2022-08-05T09:24:27.408Z,41.12
2022-08-05T09:28:21.027Z,40.04
2022-08-05T09:32:42.252Z,40.77
2022-08-05T09:36:19.922Z,39.10
2022-08-05T09:39:16.788Z,39.15
2022-08-05T09:41:58.691Z,38.06
2022-08-05T09:44:35.818Z,38.82
2022-08-05T09:47:15.435Z,38.74
2022-08-05T09:50:00.695Z,37.95
2022-08-05T09:52:35.847Z,37.94
2022-08-05T09:55:57.988Z,37.10
2022-08-05T09:57:59.844Z,36.67
2022-08-05T10:00:30.470Z,35.19
2022-08-05T10:02:59.160Z,34.89
2022-08-05T10:05:32.746Z,35.25
2022-08-05T10:08:35.823Z,34.72
2022-08-05T10:10:54.443Z,35.11
2022-08-05T10:13:31.615Z,35.06
2022-08-05T10:16:29.171Z,35.75
2022-08-05T10:18:58.383Z,35.78
2022-08-05T10:21:27.647Z,35.61
2022-08-05T10:24:07.551Z,34.37
2022-08-05T10:26:49.160Z,33.89
2022-08-05T10:29:24.058Z,34.65
2022-08-05T10:32:53.604Z,33.65
2022-08-05T10:35:00.881Z,33.57
2022-08-05T10:37:40.394Z,34.13
2022-08-05T10:40:28.546Z,34.22
2022-08-05T10:43:04.943Z,34.18
2022-08-05T10:45:40.291Z,33.58
2022-08-05T10:48:35.279Z,32.69
2022-08-05T10:51:21.975Z,32.41
2022-08-05T10:54:22.992Z,31.30
2022-08-05T10:56:58.544Z,29.29
2022-08-05T11:00:04.283Z,29.70
2022-08-05T11:02:37.490Z,31.02
2022-08-05T11:05:10.607Z,30.41
2022-08-05T11:08:03.201Z,29.86
2022-08-05T11:10:50.066Z,30.18
2022-08-05T11:13:54.923Z,30.01
2022-08-05T11:16:33.683Z,28.69
2022-08-05T11:20:10.047Z,27.75
2022-08-05T11:22:49.769Z,28.70
2022-08-05T11:26:06.105Z,28.39
2022-08-05T11:28:33.452Z,27.78
2022-08-05T11:31:06.577Z,28.67
2022-08-05T11:33:53.212Z,28.31
2022-08-05T11:36:44.597Z,28.02
2022-08-05T11:39:18.850Z,27.56
2022-08-05T11:42:01.462Z,27.66
2022-08-05T11:44:52.720Z,27.10
2022-08-05T11:47:48.517Z,27.73
2022-08-05T11:50:14.439Z,27.56
2022-08-05T11:52:44.113Z,27.06
2022-08-05T11:55:15.020Z,27.93
2022-08-05T11:58:10.319Z,26.95
2022-08-05T12:00:38.593Z,27.06
2022-08-05T12:03:31.632Z,26.86
2022-08-05T12:06:06.193Z,26.74
2022-08-05T12:08:51.006Z,26.75
2022-08-05T12:11:21.743Z,27.13
2022-08-05T12:14:10.212Z,26.71
2022-08-05T12:16:41.402Z,25.80
2022-08-05T12:20:25.839Z,25.65
2022-08-05T12:22:09.416Z,26.20
2022-08-05T12:24:43.734Z,25.38
2022-08-05T12:27:33.022Z,25.55
2022-08-05T12:30:07.573Z,26.12
2022-08-05T12:32:50.355Z,26.19
2022-08-05T12:35:21.714Z,26.75
2022-08-05T12:37:50.315Z,26.93
2022-08-05T12:40:26.723Z,26.95
2022-08-05T12:42:58.973Z,26.89
2022-08-05T12:45:36.862Z,26.13
2022-08-05T12:48:27.055Z,26.10
2022-08-05T12:52:10.671Z,26.84
2022-08-05T12:54:02.840Z,27.11
2022-08-05T12:56:35.079Z,27.22
2022-08-05T12:59:23.824Z,26.93
2022-08-05T13:02:08.247Z,24.97
2022-08-05T13:04:52.276Z,24.97
2022-08-05T13:07:55.738Z,26.01
2022-08-05T13:10:19.631Z,25.61
2022-08-05T13:12:57.919Z,25.78
2022-08-05T13:15:42.236Z,25.37
2022-08-05T13:18:20.066Z,24.08
2022-08-05T13:20:49.916Z,23.92
2022-08-05T13:23:22.616Z,23.55
2022-08-05T13:25:59.696Z,23.15
2022-08-05T13:28:29.490Z,23.90
2022-08-05T13:31:11.208Z,23.25
2022-08-05T13:34:23.605Z,22.49
2022-08-05T13:36:31.785Z,22.82
2022-08-05T13:40:15.094Z,23.11
2022-08-05T13:44:05.918Z,21.85
2022-08-05T13:47:04.971Z,21.78
2022-08-05T13:49:36.948Z,22.35
2022-08-05T13:52:18.314Z,23.84
2022-08-05T13:54:53.463Z,23.61
2022-08-05T13:57:22.476Z,23.82
2022-08-05T13:59:57.419Z,24.37
2022-08-05T14:02:37.323Z,23.44
2022-08-05T14:05:15.275Z,23.02
2022-08-05T14:08:02.705Z,22.34
2022-08-05T14:10:34.988Z,23.14
2022-08-05T14:13:03.045Z,23.17
2022-08-05T14:16:08.476Z,23.26
2022-08-05T14:18:23.413Z,23.23
2022-08-05T14:20:54.352Z,22.94
2022-08-05T14:23:26.062Z,22.13
2022-08-05T14:25:58.751Z,22.33
2022-08-05T14:28:29.792Z,21.88
2022-08-05T14:31:00.575Z,22.53
2022-08-05T14:33:57.003Z,22.38
2022-08-05T14:36:21.470Z,22.68
2022-08-05T14:38:50.966Z,23.19
2022-08-05T14:41:20.024Z,23.17
2022-08-05T14:43:59.106Z,23.59
2022-08-05T14:46:31.043Z,22.96
2022-08-05T14:49:07.000Z,23.99
2022-08-05T14:51:38.172Z,24.55
2022-08-05T14:54:30.049Z,23.64
2022-08-05T14:56:56.011Z,23.45
2022-08-05T14:59:24.248Z,23.95
2022-08-05T15:01:53.838Z,23.78
2022-08-05T15:04:22.690Z,23.61
2022-08-05T15:06:51.765Z,23.62
2022-08-05T15:09:50.542Z,23.92
2022-08-05T15:12:11.691Z,23.50
2022-08-05T15:14:49.593Z,23.34
2022-08-05T15:17:45.680Z,23.60
2022-08-05T15:20:16.999Z,23.95
2022-08-05T15:22:52.404Z,24.16
2022-08-05T15:25:41.235Z,24.41
2022-08-05T15:28:15.469Z,23.83
2022-08-05T15:30:45.734Z,23.54
2022-08-05T15:34:04.111Z,23.94
2022-08-05T15:36:04.954Z,23.82
2022-08-05T15:38:42.100Z,23.72
2022-08-05T15:41:22.782Z,23.62
2022-08-05T15:43:54.671Z,23.76
2022-08-05T15:46:24.932Z,23.49
2022-08-05T15:49:00.763Z,23.39
2022-08-05T15:52:13.655Z,23.42
2022-08-05T15:54:34.952Z,22.05
2022-08-05T15:57:07.773Z,21.80
2022-08-05T15:59:38.102Z,22.75
2022-08-05T16:02:14.331Z,23.07
2022-08-05T16:04:44.021Z,23.19
2022-08-05T16:07:12.314Z,23.49
2022-08-05T16:09:42.136Z,23.33
2022-08-05T16:12:11.892Z,22.94
2022-08-05T16:14:40.180Z,23.08
2022-08-05T16:17:09.503Z,23.47
2022-08-05T16:20:03.671Z,23.26
2022-08-05T16:22:34.095Z,23.46
2022-08-05T16:25:08.201Z,23.19
2022-08-05T16:27:47.173Z,23.22
2022-08-05T16:30:28.711Z,22.99
2022-08-05T16:32:58.272Z,23.03
2022-08-05T16:35:28.625Z,23.68
2022-08-05T16:38:15.095Z,23.84
2022-08-05T16:40:51.761Z,23.95
2022-08-05T16:43:25.691Z,24.09
2022-08-05T16:46:07.794Z,24.04
2022-08-05T16:48:41.501Z,24.27
2022-08-05T16:51:10.914Z,23.80
2022-08-05T16:54:05.991Z,23.93
2022-08-05T16:56:31.029Z,24.58
2022-08-05T16:59:00.972Z,24.72
2022-08-05T17:01:54.240Z,24.98
2022-08-05T17:04:27.369Z,25.30
2022-08-05T17:07:03.199Z,25.39
2022-08-05T17:09:57.367Z,25.74
2022-08-05T17:12:50.419Z,25.55
2022-08-05T17:15:15.490Z,25.31
2022-08-05T17:17:55.042Z,24.99
2022-08-05T17:20:23.594Z,24.62
2022-08-05T17:22:55.229Z,24.38
2022-08-05T17:25:39.377Z,24.12
2022-08-05T17:28:09.262Z,24.08
2022-08-05T17:30:50.232Z,24.07
2022-08-05T17:33:19.973Z,24.20
2022-08-05T17:36:08.918Z,24.91
2022-08-05T17:38:35.979Z,25.04
2022-08-05T17:41:03.796Z,25.80
2022-08-05T17:43:50.571Z,26.77
2022-08-05T17:46:20.438Z,27.93
2022-08-05T17:48:48.942Z,29.90
2022-08-05T17:51:21.434Z,30.88
2022-08-05T17:53:54.534Z,32.98
2022-08-05T17:56:23.012Z,35.20
2022-08-05T17:58:56.322Z,35.74
2022-08-05T18:01:24.247Z,36.68
2022-08-05T18:04:04.453Z,36.97
2022-08-05T18:06:33.589Z,38.11
2022-08-05T18:09:03.390Z,39.43
2022-08-05T18:11:33.151Z,41.75
2022-08-05T18:14:03.637Z,43.21
2022-08-05T18:16:32.865Z,42.87
2022-08-05T18:19:00.935Z,44.05
2022-08-05T18:22:09.137Z,46.50
2022-08-05T18:24:16.601Z,47.41
2022-08-05T18:26:44.835Z,46.61
2022-08-05T18:29:16.785Z,47.06
2022-08-05T18:31:45.007Z,47.76
2022-08-05T18:34:12.928Z,48.14
2022-08-05T18:36:43.654Z,49.49
2022-08-05T18:39:22.601Z,49.67
2022-08-05T18:42:04.756Z,50.11
2022-08-05T18:44:35.562Z,50.27
2022-08-05T18:47:17.355Z,50.33
2022-08-05T18:50:03.912Z,50.86
2022-08-05T18:52:51.451Z,52.11
2022-08-05T18:55:21.474Z,53.52
2022-08-05T18:57:54.159Z,52.96
2022-08-05T19:00:31.475Z,53.20
2022-08-05T19:03:03.697Z,53.24
2022-08-05T19:06:12.711Z,54.01
2022-08-05T19:08:22.455Z,55.37
2022-08-05T19:10:59.766Z,55.17
2022-08-05T19:14:37.919Z,55.27
2022-08-05T19:18:10.297Z,54.84
2022-08-05T19:21:01.652Z,54.37
2022-08-05T19:24:07.090Z,54.15
2022-08-05T19:26:22.068Z,53.77
2022-08-05T19:28:49.890Z,54.99
2022-08-05T19:31:19.519Z,54.89
2022-08-05T19:33:56.017Z,55.38
2022-08-05T19:36:25.484Z,55.13
2022-08-05T19:38:54.414Z,55.21
2022-08-05T19:41:34.774Z,55.54
2022-08-05T19:44:13.693Z,54.85
2022-08-05T19:46:43.735Z,54.70
2022-08-05T19:49:12.580Z,55.45
2022-08-05T19:52:04.459Z,55.89
2022-08-05T19:54:34.932Z,55.78
2022-08-05T19:57:06.889Z,55.39
2022-08-05T19:59:55.836Z,55.17
2022-08-05T20:02:27.992Z,55.41
2022-08-05T20:04:58.739Z,55.73
2022-08-05T20:07:45.747Z,57.03
2022-08-05T20:10:16.705Z,57.48
2022-08-05T20:12:45.934Z,57.75
2022-08-05T20:15:48.735Z,58.38
2022-08-05T20:18:10.819Z,58.86
2022-08-05T20:20:55.797Z,59.19
2022-08-05T20:23:40.240Z,59.10
2022-08-05T20:26:15.901Z,58.62
2022-08-05T20:28:45.665Z,59.08
2022-08-05T20:31:13.481Z,58.83
2022-08-05T20:33:45.364Z,59.00
2022-08-05T20:36:16.286Z,58.97
2022-08-05T20:38:54.663Z,58.96
2022-08-05T20:41:44.334Z,59.06
2022-08-05T20:44:18.789Z,58.77
2022-08-05T20:46:57.994Z,58.72
2022-08-05T20:49:26.277Z,58.16
2022-08-05T20:51:54.944Z,58.60
2022-08-05T20:54:24.717Z,59.06
2022-08-05T20:56:53.116Z,59.21
2022-08-05T20:59:27.017Z,59.01
2022-08-05T21:02:09.154Z,58.89
2022-08-05T21:04:38.499Z,59.34
2022-08-05T21:07:06.359Z,59.22
2022-08-05T21:09:37.215Z,59.55
2022-08-05T21:12:19.976Z,59.61
2022-08-05T21:14:47.828Z,59.57
2022-08-05T21:17:16.069Z,59.33
2022-08-05T21:19:48.045Z,59.25
2022-08-05T21:22:23.248Z,59.01
2022-08-05T21:24:52.738Z,59.10
2022-08-05T21:27:24.984Z,58.85
2022-08-05T21:29:56.244Z,58.66
2022-08-05T21:32:27.189Z,59.34
2022-08-05T21:35:17.728Z,58.97
2022-08-05T21:37:53.042Z,58.83
2022-08-05T21:40:24.765Z,58.80
2022-08-05T21:42:53.506Z,58.85
2022-08-05T21:45:25.166Z,59.10
2022-08-05T21:48:10.104Z,58.86
2022-08-05T21:50:42.479Z,59.15
2022-08-05T21:53:27.220Z,59.31
2022-08-05T21:56:06.039Z,59.10
2022-08-05T21:58:42.348Z,58.68
2022-08-05T22:01:23.901Z,59.04
2022-08-05T22:03:53.620Z,59.24
2022-08-05T22:06:39.480Z,58.92
2022-08-05T22:09:13.722Z,58.60
2022-08-05T22:11:46.698Z,58.62
2022-08-05T22:14:37.203Z,59.13
2022-08-05T22:17:06.795Z,59.08
2022-08-05T22:19:57.460Z,59.36
2022-08-05T22:22:28.049Z,58.98
2022-08-05T22:25:21.313Z,59.03
2022-08-05T22:28:08.390Z,60.10
2022-08-05T22:30:44.335Z,59.96
2022-08-05T22:33:56.996Z,60.43
2022-08-05T22:36:14.653Z,60.81
2022-08-05T22:38:48.054Z,60.76
2022-08-05T22:42:04.299Z,61.05
2022-08-05T22:44:06.852Z,60.97
2022-08-05T22:46:40.196Z,60.47
2022-08-05T22:49:23.590Z,60.09
2022-08-05T22:52:05.483Z,59.90
2022-08-05T22:54:36.337Z,59.74
2022-08-05T22:57:07.455Z,59.64
2022-08-05T22:59:46.114Z,59.54
2022-08-05T23:02:18.635Z,59.47
2022-08-05T23:05:01.910Z,59.43
2022-08-05T23:07:44.070Z,59.43
2022-08-05T23:10:14.497Z,59.36
2022-08-05T23:12:43.044Z,59.31
2022-08-05T23:15:11.986Z,59.32
2022-08-05T23:18:02.396Z,59.32
2022-08-05T23:20:27.589Z,59.39
2022-08-05T23:22:58.701Z,59.36
2022-08-05T23:25:54.758Z,59.29
2022-08-05T23:28:15.669Z,59.29
2022-08-05T23:30:53.361Z,59.27
2022-08-05T23:33:26.487Z,59.13
2022-08-05T23:36:12.337Z,59.27
2022-08-05T23:38:42.847Z,59.48
2022-08-05T23:41:11.417Z,59.74
2022-08-05T23:44:03.171Z,60.18
2022-08-05T23:46:27.002Z,60.12
2022-08-05T23:49:00.461Z,60.20
2022-08-05T23:51:53.764Z,61.13
2022-08-05T23:54:25.764Z,61.54
2022-08-05T23:56:55.340Z,63.16
2022-08-05T23:59:27.828Z,67.12
